Time;durP1;ratioP1;P1;durP2;ratioP2;P2;SDS_P1;SDS_P2;PMS_P1;PMS_P2;Temp;Humidity;BMP_temperature;BMP_pressure;BME280_temperature;BME280_humidity;BME280_pressure;Samples;Min_cycle;Max_cycle;Signal;HPM_P1;HPM_P2
2023/10/22 00:00:07;;;;;;;1.52;0.88;;;;;;;;;;5031736;28;20521;-64
2023/10/22 00:02:33;;;;;;;2.33;0.98;;;;;;;;;;5030544;28;20489;-63
2023/10/22 00:05:00;;;;;;;1.58;0.88;;;;;;;;;;5029636;28;20049;-64
2023/10/22 00:07:26;;;;;;;1.98;0.60;;;;;;;;;;5030180;28;20579;-63
2023/10/22 00:09:54;;;;;;;3.30;0.98;;;;;;;;;;5038456;28;20049;-64
2023/10/22 00:12:21;;;;;;;1.30;0.77;;;;;;;;;;5031865;28;20060;-62
2023/10/22 00:14:47;;;;;;;3.92;1.00;;;;;;;;;;5044871;28;20103;-62
2023/10/22 00:17:13;;;;;;;1.17;0.60;;;;;;;;;;5035414;28;20048;-63
2023/10/22 00:19:39;;;;;;;2.47;0.98;;;;;;;;;;5042651;28;20041;-63
2023/10/22 00:22:06;;;;;;;3.42;1.00;;;;;;;;;;5044388;28;20060;-63
2023/10/22 00:24:32;;;;;;;2.88;1.00;;;;;;;;;;5041046;28;20394;-63
2023/10/22 00:27:00;;;;;;;4.85;1.20;;;;;;;;;;5039628;28;20055;-63
2023/10/22 00:29:26;;;;;;;2.55;0.73;;;;;;;;;;5038090;28;20097;-63
2023/10/22 00:31:52;;;;;;;1.42;0.65;;;;;;;;;;5035987;28;20049;-63
2023/10/22 00:34:18;;;;;;;3.10;1.15;;;;;;;;;;5044154;28;20049;-63
2023/10/22 00:36:44;;;;;;;1.52;0.70;;;;;;;;;;5040259;28;20060;-63
2023/10/22 00:39:10;;;;;;;3.05;0.52;;;;;;;;;;5037112;28;20053;-63
2023/10/22 00:41:36;;;;;;;2.75;0.90;;;;;;;;;;5036478;28;20423;-63
2023/10/22 00:44:02;;;;;;;2.60;0.73;;;;;;;;;;5039298;28;20048;-63
2023/10/22 00:46:29;;;;;;;2.33;0.95;;;;;;;;;;5039895;28;20060;-63
2023/10/22 00:48:55;;;;;;;1.83;0.90;;;;;;;;;;5035894;28;20493;-63
2023/10/22 00:51:22;;;;;;;3.83;0.70;;;;;;;;;;5037789;28;20053;-63
2023/10/22 00:53:50;;;;;;;4.15;1.13;;;;;;;;;;5043376;28;20140;-63
2023/10/22 00:56:17;;;;;;;1.20;0.60;;;;;;;;;;5043696;28;20040;-63
2023/10/22 00:58:43;;;;;;;1.55;0.55;;;;;;;;;;5035560;28;20045;-63
2023/10/22 01:01:10;;;;;;;2.42;0.65;;;;;;;;;;5037652;28;20037;-64
2023/10/22 01:03:36;;;;;;;2.88;0.88;;;;;;;;;;5040992;28;20052;-63
2023/10/22 01:06:04;;;;;;;1.85;0.70;;;;;;;;;;5041560;28;20084;-63
2023/10/22 01:08:30;;;;;;;2.83;0.82;;;;;;;;;;5041618;28;20064;-63
2023/10/22 01:11:04;;;;;;;1.67;0.68;;;;;;;;;;5040242;28;20033;-63
2023/10/22 01:13:30;;;;;;;2.28;0.88;;;;;;;;;;5043966;28;20075;-63
2023/10/22 01:15:56;;;;;;;1.55;0.88;;;;;;;;;;5042324;28;20041;-63
2023/10/22 01:18:22;;;;;;;1.17;0.50;;;;;;;;;;5043550;28;20141;-63
2023/10/22 01:20:48;;;;;;;2.15;0.85;;;;;;;;;;5043189;28;20080;-63
2023/10/22 01:23:14;;;;;;;2.15;0.80;;;;;;;;;;5044519;28;20545;-64
2023/10/22 01:25:40;;;;;;;5.30;1.42;;;;;;;;;;5044013;28;20105;-63
2023/10/22 01:28:06;;;;;;;1.98;0.90;;;;;;;;;;5042570;28;20504;-64
2023/10/22 01:30:32;;;;;;;3.08;0.70;;;;;;;;;;5037108;28;20056;-63
2023/10/22 01:32:58;;;;;;;8.45;0.80;;;;;;;;;;5041876;28;20052;-63
2023/10/22 01:35:24;;;;;;;1.95;0.85;;;;;;;;;;5043206;28;20049;-64
2023/10/22 01:37:50;;;;;;;1.25;0.60;;;;;;;;;;5042884;28;20127;-63
2023/10/22 01:40:16;;;;;;;1.88;0.65;;;;;;;;;;5042096;28;20165;-63
2023/10/22 01:42:42;;;;;;;1.05;0.60;;;;;;;;;;5047345;28;20099;-64
2023/10/22 01:45:08;;;;;;;3.20;0.68;;;;;;;;;;5047553;28;20063;-63
2023/10/22 01:47:34;;;;;;;3.70;0.88;;;;;;;;;;5045485;28;20388;-63
2023/10/22 01:50:00;;;;;;;3.55;0.40;;;;;;;;;;5046554;28;20055;-63
2023/10/22 01:52:26;;;;;;;0.90;0.50;;;;;;;;;;5046026;28;20041;-63
2023/10/22 01:54:52;;;;;;;2.65;0.60;;;;;;;;;;5045912;28;20646;-63
2023/10/22 01:57:18;;;;;;;0.88;0.40;;;;;;;;;;5046711;28;20045;-64
2023/10/22 01:59:44;;;;;;;1.77;0.65;;;;;;;;;;5045839;28;20120;-63
2023/10/22 02:02:10;;;;;;;1.23;0.50;;;;;;;;;;5048155;28;20178;-64
2023/10/22 02:04:36;;;;;;;1.75;0.50;;;;;;;;;;5045295;28;20042;-63
2023/10/22 02:07:02;;;;;;;0.90;0.30;;;;;;;;;;5045369;28;20068;-63
2023/10/22 02:09:28;;;;;;;1.15;0.77;;;;;;;;;;5046262;28;20092;-63
2023/10/22 02:11:55;;;;;;;2.33;0.52;;;;;;;;;;5045293;28;20124;-63
2023/10/22 02:14:21;;;;;;;1.10;0.65;;;;;;;;;;5045186;28;20052;-63
2023/10/22 02:16:47;;;;;;;0.82;0.35;;;;;;;;;;5045354;28;20210;-63
2023/10/22 02:19:13;;;;;;;0.88;0.50;;;;;;;;;;5047511;28;20056;-64
2023/10/22 02:21:39;;;;;;;1.85;0.65;;;;;;;;;;5044214;28;20574;-65
2023/10/22 02:24:05;;;;;;;0.57;0.40;;;;;;;;;;5045483;28;20049;-63
2023/10/22 02:26:31;;;;;;;2.25;0.68;;;;;;;;;;5047657;28;20132;-63
2023/10/22 02:28:57;;;;;;;1.23;0.40;;;;;;;;;;5047146;28;20391;-63
2023/10/22 02:31:23;;;;;;;1.58;0.40;;;;;;;;;;5045102;28;20044;-63
2023/10/22 02:33:49;;;;;;;0.85;0.68;;;;;;;;;;5043943;28;20061;-63
2023/10/22 02:36:15;;;;;;;2.15;0.77;;;;;;;;;;5044351;28;20052;-64
2023/10/22 02:38:41;;;;;;;1.20;0.60;;;;;;;;;;5046340;28;20392;-63
2023/10/22 02:41:07;;;;;;;1.33;0.75;;;;;;;;;;5043568;28;20047;-63
2023/10/22 02:43:33;;;;;;;1.23;0.60;;;;;;;;;;5045608;28;20045;-63
2023/10/22 02:46:00;;;;;;;1.05;0.73;;;;;;;;;;5037629;28;20598;-63
2023/10/22 02:48:26;;;;;;;2.53;0.80;;;;;;;;;;5043164;28;20059;-63
2023/10/22 02:50:52;;;;;;;0.50;0.50;;;;;;;;;;5042829;28;20440;-63
2023/10/22 02:53:18;;;;;;;2.15;0.80;;;;;;;;;;5043517;28;20078;-63
2023/10/22 02:55:44;;;;;;;1.45;0.60;;;;;;;;;;5042667;28;20104;-63
2023/10/22 02:58:10;;;;;;;0.73;0.40;;;;;;;;;;5045382;28;20049;-63
2023/10/22 03:00:36;;;;;;;1.40;0.98;;;;;;;;;;5043643;28;20045;-63
2023/10/22 03:03:03;;;;;;;1.63;0.70;;;;;;;;;;5043084;28;20048;-63
2023/10/22 03:05:36;;;;;;;1.02;0.65;;;;;;;;;;5042975;28;20106;-62
2023/10/22 03:08:03;;;;;;;1.67;0.75;;;;;;;;;;5044045;28;20076;-62
2023/10/22 03:10:29;;;;;;;1.83;0.40;;;;;;;;;;5044013;28;20052;-63
2023/10/22 03:12:57;;;;;;;1.85;0.55;;;;;;;;;;5043801;28;20055;-63
2023/10/22 03:15:24;;;;;;;1.15;0.40;;;;;;;;;;5043268;28;20052;-63
2023/10/22 03:17:50;;;;;;;1.15;0.52;;;;;;;;;;5042630;28;20045;-63
2023/10/22 03:20:18;;;;;;;0.80;0.50;;;;;;;;;;5044674;28;20044;-63
2023/10/22 03:22:44;;;;;;;1.45;0.50;;;;;;;;;;5043371;28;20531;-63
2023/10/22 03:25:12;;;;;;;2.47;0.80;;;;;;;;;;5042686;28;20057;-63
2023/10/22 03:27:38;;;;;;;0.80;0.60;;;;;;;;;;5042335;28;20582;-63
2023/10/22 03:30:04;;;;;;;1.90;0.45;;;;;;;;;;5043585;28;20049;-63
2023/10/22 03:32:30;;;;;;;0.70;0.52;;;;;;;;;;5042316;28;20131;-63
2023/10/22 03:34:56;;;;;;;1.27;0.68;;;;;;;;;;5043256;28;20049;-63
2023/10/22 03:37:22;;;;;;;0.60;0.57;;;;;;;;;;5059991;28;20043;-63
2023/10/22 03:39:48;;;;;;;0.70;0.50;;;;;;;;;;5042883;28;20041;-63
2023/10/22 03:42:14;;;;;;;0.80;0.52;;;;;;;;;;5043358;28;20053;-63
2023/10/22 03:44:40;;;;;;;0.55;0.50;;;;;;;;;;5043042;28;20041;-63
2023/10/22 03:47:06;;;;;;;2.67;0.80;;;;;;;;;;5043320;28;20045;-63
2023/10/22 03:49:32;;;;;;;2.40;0.82;;;;;;;;;;5042508;28;20049;-63
2023/10/22 03:51:58;;;;;;;1.15;1.00;;;;;;;;;;5043039;28;20589;-63
2023/10/22 03:54:24;;;;;;;1.20;0.90;;;;;;;;;;5042135;28;20123;-63
2023/10/22 03:56:50;;;;;;;1.25;0.55;;;;;;;;;;5039160;28;20052;-62
2023/10/22 03:59:16;;;;;;;1.23;0.70;;;;;;;;;;5042255;28;20611;-63
2023/10/22 04:01:42;;;;;;;1.13;0.52;;;;;;;;;;5043333;28;20106;-63
2023/10/22 04:04:08;;;;;;;0.82;0.63;;;;;;;;;;5042464;28;20486;-63
2023/10/22 04:06:34;;;;;;;1.50;0.55;;;;;;;;;;5039744;28;20060;-63
2023/10/22 04:09:00;;;;;;;0.63;0.50;;;;;;;;;;5044327;28;20135;-63
2023/10/22 04:11:26;;;;;;;0.85;0.80;;;;;;;;;;5041988;28;20151;-63
2023/10/22 04:13:52;;;;;;;1.30;0.50;;;;;;;;;;5037181;28;20044;-63
2023/10/22 04:16:18;;;;;;;1.10;0.60;;;;;;;;;;5042730;28;20049;-63
2023/10/22 04:18:45;;;;;;;0.57;0.50;;;;;;;;;;5042024;28;20049;-63
2023/10/22 04:21:14;;;;;;;0.20;0.20;;;;;;;;;;5042085;28;20073;-63
2023/10/22 04:23:40;;;;;;;1.70;0.20;;;;;;;;;;5042765;28;20045;-63
2023/10/22 04:26:13;;;;;;;0.40;0.40;;;;;;;;;;5043699;28;20053;-63
2023/10/22 04:28:43;;;;;;;0.70;0.30;;;;;;;;;;5042257;28;20407;-63
2023/10/22 04:31:09;;;;;;;0.68;0.30;;;;;;;;;;5042913;28;20098;-63
2023/10/22 04:33:36;;;;;;;0.52;0.40;;;;;;;;;;5043708;28;20052;-63
2023/10/22 04:36:02;;;;;;;0.20;0.20;;;;;;;;;;5040096;28;20080;-63
2023/10/22 04:38:29;;;;;;;0.85;0.35;;;;;;;;;;5041830;28;20379;-63
2023/10/22 04:40:55;;;;;;;0.38;0.30;;;;;;;;;;5043684;28;20491;-63
2023/10/22 04:43:21;;;;;;;0.68;0.30;;;;;;;;;;5040024;28;20540;-63
2023/10/22 04:45:47;;;;;;;0.22;0.22;;;;;;;;;;5042945;28;20051;-63
2023/10/22 04:48:13;;;;;;;0.30;0.28;;;;;;;;;;5042072;28;20040;-63
2023/10/22 04:50:41;;;;;;;0.63;0.40;;;;;;;;;;5040570;28;20610;-62
2023/10/22 04:53:07;;;;;;;0.25;0.25;;;;;;;;;;5042298;28;20056;-63
2023/10/22 04:55:33;;;;;;;0.52;0.45;;;;;;;;;;5041093;28;20080;-63
2023/10/22 04:58:00;;;;;;;0.30;0.30;;;;;;;;;;5042403;28;20582;-62
2023/10/22 05:00:26;;;;;;;0.82;0.35;;;;;;;;;;5040461;28;20055;-63
2023/10/22 05:02:52;;;;;;;0.25;0.20;;;;;;;;;;5043170;28;20502;-63
2023/10/22 05:05:20;;;;;;;1.35;0.32;;;;;;;;;;5041948;28;20059;-63
2023/10/22 05:07:46;;;;;;;0.65;0.30;;;;;;;;;;5041600;28;20056;-63
2023/10/22 05:10:14;;;;;;;1.17;0.38;;;;;;;;;;5040653;28;20057;-63
2023/10/22 05:12:39;;;;;;;0.60;0.60;;;;;;;;;;5043874;28;20130;-63
2023/10/22 05:15:06;;;;;;;0.45;0.45;;;;;;;;;;5043077;28;20116;-63
2023/10/22 05:17:32;;;;;;;0.40;0.40;;;;;;;;;;5045865;28;20037;-62
2023/10/22 05:19:58;;;;;;;0.55;0.55;;;;;;;;;;5046934;28;20048;-63
2023/10/22 05:22:24;;;;;;;0.80;0.80;;;;;;;;;;5045870;28;20372;-63
2023/10/22 05:24:50;;;;;;;1.05;0.82;;;;;;;;;;5044644;28;20411;-63
2023/10/22 05:27:17;;;;;;;1.10;1.00;;;;;;;;;;5045396;28;20083;-63
2023/10/22 05:29:43;;;;;;;1.02;1.02;;;;;;;;;;5045644;28;20049;-63
2023/10/22 05:32:09;;;;;;;1.88;0.82;;;;;;;;;;5047085;28;20079;-63
2023/10/22 05:34:35;;;;;;;1.98;1.27;;;;;;;;;;5045099;28;20041;-63
2023/10/22 05:37:01;;;;;;;1.90;1.80;;;;;;;;;;5045861;28;20037;-62
2023/10/22 05:39:27;;;;;;;1.98;1.80;;;;;;;;;;5044459;28;20812;-63
2023/10/22 05:41:53;;;;;;;1.35;1.25;;;;;;;;;;5046521;28;20045;-63
2023/10/22 05:44:19;;;;;;;1.50;1.40;;;;;;;;;;5046080;28;20059;-63
2023/10/22 05:46:45;;;;;;;1.33;1.23;;;;;;;;;;5044949;28;20527;-63
2023/10/22 05:49:11;;;;;;;1.15;1.05;;;;;;;;;;5045835;28;20049;-63
2023/10/22 05:51:38;;;;;;;2.65;2.00;;;;;;;;;;5044710;28;20047;-63
2023/10/22 05:54:05;;;;;;;1.98;1.88;;;;;;;;;;5046129;28;20494;-63
2023/10/22 05:56:32;;;;;;;2.00;1.90;;;;;;;;;;5045374;28;20049;-63
2023/10/22 05:58:58;;;;;;;2.53;2.17;;;;;;;;;;5044243;28;20142;-63
2023/10/22 06:01:25;;;;;;;2.25;2.15;;;;;;;;;;5044797;28;20064;-63
2023/10/22 06:03:51;;;;;;;1.92;1.83;;;;;;;;;;5044750;28;20136;-63
2023/10/22 06:06:21;;;;;;;1.88;1.77;;;;;;;;;;5043770;28;20507;-63
2023/10/22 06:08:47;;;;;;;1.70;1.60;;;;;;;;;;5042453;28;20045;-63
2023/10/22 06:11:14;;;;;;;0.70;0.70;;;;;;;;;;5046664;28;20124;-63
2023/10/22 06:13:40;;;;;;;0.70;0.52;;;;;;;;;;5044016;28;20049;-63
2023/10/22 06:16:07;;;;;;;0.40;0.30;;;;;;;;;;5046397;28;20125;-63
2023/10/22 06:18:33;;;;;;;0.63;0.30;;;;;;;;;;5044364;28;20045;-63
2023/10/22 06:20:59;;;;;;;1.05;0.35;;;;;;;;;;5045367;28;20047;-63
2023/10/22 06:23:25;;;;;;;0.40;0.30;;;;;;;;;;5044486;28;20053;-63
2023/10/22 06:25:51;;;;;;;1.17;0.75;;;;;;;;;;5044014;28;20429;-63
2023/10/22 06:28:17;;;;;;;0.30;0.30;;;;;;;;;;5043775;28;20056;-63
2023/10/22 06:30:43;;;;;;;0.85;0.45;;;;;;;;;;5043225;28;20514;-63
2023/10/22 06:33:10;;;;;;;1.65;0.88;;;;;;;;;;5044836;28;20049;-63
2023/10/22 06:35:36;;;;;;;1.98;0.88;;;;;;;;;;5040228;28;20049;-63
2023/10/22 06:38:02;;;;;;;3.33;0.93;;;;;;;;;;5046162;28;20052;-63
2023/10/22 06:40:28;;;;;;;2.03;1.17;;;;;;;;;;5044510;28;20052;-63
2023/10/22 06:42:54;;;;;;;6.18;1.67;;;;;;;;;;5043457;28;20043;-63
2023/10/22 06:45:20;;;;;;;1.38;0.80;;;;;;;;;;5044144;28;20133;-63
2023/10/22 06:47:46;;;;;;;0.47;0.47;;;;;;;;;;5044047;28;20041;-64
2023/10/22 06:50:14;;;;;;;2.13;1.00;;;;;;;;;;5043336;28;20635;-63
2023/10/22 06:52:43;;;;;;;1.25;0.50;;;;;;;;;;5043845;28;20511;-63
2023/10/22 06:55:10;;;;;;;0.75;0.60;;;;;;;;;;5045240;28;20049;-63
2023/10/22 06:57:36;;;;;;;2.72;0.63;;;;;;;;;;5043132;28;20041;-63
2023/10/22 07:00:02;;;;;;;0.63;0.50;;;;;;;;;;5043451;28;20068;-64
2023/10/22 07:02:28;;;;;;;0.93;0.47;;;;;;;;;;5041817;28;20055;-63
2023/10/22 07:04:55;;;;;;;2.20;0.82;;;;;;;;;;5042498;28;20668;-63
2023/10/22 07:07:22;;;;;;;2.67;0.65;;;;;;;;;;5042109;28;20053;-63
2023/10/22 07:09:48;;;;;;;2.90;0.77;;;;;;;;;;5042585;28;20053;-63
2023/10/22 07:12:15;;;;;;;1.35;0.43;;;;;;;;;;5044862;28;20081;-63
2023/10/22 07:14:41;;;;;;;3.28;0.70;;;;;;;;;;5043890;28;20049;-63
2023/10/22 07:17:07;;;;;;;1.92;0.70;;;;;;;;;;5043048;28;20125;-63
2023/10/22 07:19:33;;;;;;;0.55;0.43;;;;;;;;;;5042099;28;20098;-63
2023/10/22 07:22:00;;;;;;;0.95;0.82;;;;;;;;;;5044984;28;20049;-63
2023/10/22 07:24:26;;;;;;;1.63;0.80;;;;;;;;;;5043979;28;20103;-63
2023/10/22 07:26:52;;;;;;;1.45;0.57;;;;;;;;;;5043081;28;20126;-63
2023/10/22 07:29:18;;;;;;;1.80;0.80;;;;;;;;;;5043474;28;20124;-63
2023/10/22 07:31:47;;;;;;;2.30;1.08;;;;;;;;;;5042532;28;20518;-64
2023/10/22 07:34:13;;;;;;;1.42;0.90;;;;;;;;;;5041866;28;20581;-63
2023/10/22 07:36:40;;;;;;;2.92;1.10;;;;;;;;;;5043287;28;20064;-63
2023/10/22 07:39:06;;;;;;;2.72;1.20;;;;;;;;;;5041637;28;20155;-63
2023/10/22 07:41:31;;;;;;;1.83;1.38;;;;;;;;;;5043450;28;20140;-63
2023/10/22 07:43:58;;;;;;;1.95;0.93;;;;;;;;;;5042548;28;20048;-63
2023/10/22 07:46:25;;;;;;;1.30;1.05;;;;;;;;;;5042231;28;20131;-63
2023/10/22 07:48:51;;;;;;;1.15;0.82;;;;;;;;;;5043125;28;20384;-63
2023/10/22 07:51:18;;;;;;;3.50;1.20;;;;;;;;;;5041832;28;20128;-63
2023/10/22 07:53:44;;;;;;;3.15;1.35;;;;;;;;;;5043400;28;20045;-63
2023/10/22 07:56:11;;;;;;;6.10;1.52;;;;;;;;;;5043296;28;20052;-63
2023/10/22 07:58:37;;;;;;;3.25;1.17;;;;;;;;;;5042714;28;20075;-63
2023/10/22 08:01:04;;;;;;;0.60;0.60;;;;;;;;;;5042709;28;20519;-63
2023/10/22 08:03:30;;;;;;;1.50;0.90;;;;;;;;;;5042099;28;20040;-63
2023/10/22 08:05:57;;;;;;;1.20;0.70;;;;;;;;;;5041160;28;20341;-63
2023/10/22 08:08:23;;;;;;;0.82;0.63;;;;;;;;;;5040468;28;20059;-63
2023/10/22 08:10:50;;;;;;;1.63;0.60;;;;;;;;;;5041139;28;20049;-63
2023/10/22 08:13:16;;;;;;;1.40;1.10;;;;;;;;;;5039971;28;20539;-63
2023/10/22 08:15:42;;;;;;;1.85;1.00;;;;;;;;;;5041330;28;20037;-63
2023/10/22 08:18:08;;;;;;;2.38;0.63;;;;;;;;;;5044006;28;20407;-63
2023/10/22 08:20:34;;;;;;;1.40;0.85;;;;;;;;;;5041181;28;20055;-63
2023/10/22 08:23:00;;;;;;;1.60;0.80;;;;;;;;;;5042067;28;20047;-63
2023/10/22 08:25:26;;;;;;;2.60;1.20;;;;;;;;;;5042141;28;20286;-62
2023/10/22 08:27:52;;;;;;;1.15;0.90;;;;;;;;;;5041133;28;20045;-63
2023/10/22 08:30:18;;;;;;;1.48;0.80;;;;;;;;;;5059056;28;20142;-63
2023/10/22 08:32:46;;;;;;;5.13;1.25;;;;;;;;;;5041124;28;20037;-63
2023/10/22 08:35:12;;;;;;;2.33;0.93;;;;;;;;;;5043216;28;20055;-63
2023/10/22 08:37:39;;;;;;;3.70;1.23;;;;;;;;;;5041316;28;20066;-63
2023/10/22 08:40:08;;;;;;;2.97;1.30;;;;;;;;;;5042673;28;20060;-63
2023/10/22 08:42:35;;;;;;;3.70;0.95;;;;;;;;;;5041990;28;20052;-63
2023/10/22 08:45:02;;;;;;;2.10;0.90;;;;;;;;;;5037365;28;20195;-63
2023/10/22 08:47:28;;;;;;;1.90;1.23;;;;;;;;;;5040918;28;20053;-64
2023/10/22 08:49:55;;;;;;;2.55;1.05;;;;;;;;;;5034625;28;20450;-63
2023/10/22 08:52:21;;;;;;;1.80;0.98;;;;;;;;;;5036056;28;20158;-66
2023/10/22 08:54:48;;;;;;;1.85;1.35;;;;;;;;;;5040169;28;20053;-67
2023/10/22 08:57:14;;;;;;;4.55;1.10;;;;;;;;;;5041490;28;20049;-67
2023/10/22 08:59:40;;;;;;;1.25;0.73;;;;;;;;;;5041433;28;20055;-67
2023/10/22 09:02:11;;;;;;;3.63;1.10;;;;;;;;;;5040667;28;20066;-66
2023/10/22 09:04:37;;;;;;;1.88;0.65;;;;;;;;;;5039061;28;20044;-67
2023/10/22 09:07:03;;;;;;;1.50;0.85;;;;;;;;;;5043884;28;20163;-66
2023/10/22 09:09:30;;;;;;;2.20;0.60;;;;;;;;;;5043199;28;20060;-67
2023/10/22 09:11:56;;;;;;;2.03;0.80;;;;;;;;;;5044093;28;20675;-65
2023/10/22 09:14:23;;;;;;;2.35;0.90;;;;;;;;;;5042863;28;20045;-63
2023/10/22 09:16:49;;;;;;;2.67;0.80;;;;;;;;;;5040683;28;20047;-64
2023/10/22 09:19:16;;;;;;;3.70;0.98;;;;;;;;;;5040034;28;20521;-65
2023/10/22 09:21:42;;;;;;;1.98;0.70;;;;;;;;;;5041188;28;20541;-63
2023/10/22 09:24:09;;;;;;;1.27;0.70;;;;;;;;;;5042202;28;20049;-64
2023/10/22 09:26:42;;;;;;;2.05;0.75;;;;;;;;;;5042079;28;20048;-64
2023/10/22 09:29:08;;;;;;;2.05;0.52;;;;;;;;;;5042070;28;20057;-66
2023/10/22 09:31:34;;;;;;;0.65;0.47;;;;;;;;;;5041394;28;20055;-62
2023/10/22 09:34:00;;;;;;;1.00;0.60;;;;;;;;;;5043020;28;20156;-63
2023/10/22 09:36:27;;;;;;;1.58;0.55;;;;;;;;;;5040185;28;20388;-63
2023/10/22 09:38:53;;;;;;;2.70;0.88;;;;;;;;;;5041512;28;20135;-63
2023/10/22 09:41:27;;;;;;;0.75;0.30;;;;;;;;;;5041476;28;20047;-64
2023/10/22 09:43:53;;;;;;;1.15;0.70;;;;;;;;;;5038494;28;20048;-63
2023/10/22 09:46:19;;;;;;;0.95;0.70;;;;;;;;;;5043458;28;20092;-63
2023/10/22 09:48:49;;;;;;;1.77;0.68;;;;;;;;;;5040577;28;20059;-64
2023/10/22 09:51:17;;;;;;;1.10;0.52;;;;;;;;;;5054363;28;20708;-64
2023/10/22 09:53:51;;;;;;;2.35;0.65;;;;;;;;;;5043183;28;20075;-64
2023/10/22 09:56:19;;;;;;;1.65;0.50;;;;;;;;;;5043293;28;20052;-64
2023/10/22 09:58:47;;;;;;;4.22;1.02;;;;;;;;;;5041321;28;20068;-64
2023/10/22 10:01:14;;;;;;;3.00;0.50;;;;;;;;;;5042068;28;20059;-64
2023/10/22 10:03:41;;;;;;;0.28;0.28;;;;;;;;;;5038810;28;20052;-64
2023/10/22 10:06:07;;;;;;;1.25;0.80;;;;;;;;;;5044203;28;20098;-64
2023/10/22 10:08:35;;;;;;;2.33;0.50;;;;;;;;;;5041977;28;20511;-64
2023/10/22 10:11:01;;;;;;;1.08;0.47;;;;;;;;;;5040958;28;20048;-64
2023/10/22 10:13:27;;;;;;;1.02;0.35;;;;;;;;;;5042215;28;20049;-64
2023/10/22 10:16:01;;;;;;;0.95;0.43;;;;;;;;;;5043843;28;20463;-64
2023/10/22 10:18:46;;;;;;;1.17;0.55;;;;;;;;;;5044656;28;20057;-64
2023/10/22 10:21:31;;;;;;;2.58;0.63;;;;;;;;;;5043646;28;20128;-64
2023/10/22 10:24:17;;;;;;;1.42;0.50;;;;;;;;;;5034482;28;20053;-64
2023/10/22 10:26:43;;;;;;;3.05;0.77;;;;;;;;;;5042403;28;20103;-64
2023/10/22 10:29:14;;;;;;;1.38;0.75;;;;;;;;;;5033152;28;20131;-64
2023/10/22 10:31:40;;;;;;;2.22;0.52;;;;;;;;;;5042711;28;20718;-64
2023/10/22 10:34:07;;;;;;;2.47;0.63;;;;;;;;;;5035235;28;20087;-64
2023/10/22 10:36:34;;;;;;;3.55;0.60;;;;;;;;;;5040742;28;20140;-64
2023/10/22 10:39:18;;;;;;;1.23;0.45;;;;;;;;;;5043515;28;20143;-64
2023/10/22 10:41:51;;;;;;;2.38;0.77;;;;;;;;;;5042923;28;20045;-64
2023/10/22 10:44:17;;;;;;;1.13;0.50;;;;;;;;;;5044684;28;20128;-64
2023/10/22 10:46:43;;;;;;;3.55;1.02;;;;;;;;;;5043895;28;20188;-64
2023/10/22 10:49:09;;;;;;;0.55;0.50;;;;;;;;;;5044570;28;20041;-64
2023/10/22 10:51:36;;;;;;;0.90;0.32;;;;;;;;;;5044269;28;20052;-64
2023/10/22 10:54:07;;;;;;;2.60;0.80;;;;;;;;;;5059059;28;20041;-64
2023/10/22 10:56:48;;;;;;;1.33;0.50;;;;;;;;;;5044017;28;20049;-65
2023/10/22 10:59:27;;;;;;;1.38;0.68;;;;;;;;;;5057829;28;20048;-65
2023/10/22 11:02:00;;;;;;;2.65;0.90;;;;;;;;;;5041591;28;20128;-65
2023/10/22 11:04:26;;;;;;;1.35;0.63;;;;;;;;;;5040474;28;20076;-65
2023/10/22 11:06:52;;;;;;;2.47;0.60;;;;;;;;;;5041371;28;20510;-65
2023/10/22 11:09:18;;;;;;;3.72;0.60;;;;;;;;;;5042385;28;20508;-64
2023/10/22 11:12:03;;;;;;;1.50;0.40;;;;;;;;;;5040442;28;20048;-64
2023/10/22 11:14:36;;;;;;;0.90;0.50;;;;;;;;;;5041586;28;20053;-64
2023/10/22 11:17:02;;;;;;;1.27;0.40;;;;;;;;;;5041942;28;20645;-64
2023/10/22 11:19:29;;;;;;;2.63;0.80;;;;;;;;;;5043733;28;20083;-64
2023/10/22 11:21:55;;;;;;;1.25;0.45;;;;;;;;;;5044924;28;20052;-64
2023/10/22 11:24:22;;;;;;;0.88;0.50;;;;;;;;;;5044862;28;20883;-64
2023/10/22 11:26:50;;;;;;;0.95;0.55;;;;;;;;;;5043080;28;20049;-64
2023/10/22 11:29:16;;;;;;;1.02;0.55;;;;;;;;;;5043257;28;20052;-64
2023/10/22 11:31:51;;;;;;;0.50;0.47;;;;;;;;;;5042454;28;20426;-64
2023/10/22 11:34:17;;;;;;;0.75;0.32;;;;;;;;;;5044313;28;20057;-65
2023/10/22 11:36:43;;;;;;;1.00;0.50;;;;;;;;;;5043337;28;20045;-64
2023/10/22 11:39:19;;;;;;;1.98;0.50;;;;;;;;;;5044574;28;20126;-65
2023/10/22 11:41:45;;;;;;;1.20;0.40;;;;;;;;;;5043974;28;20102;-65
2023/10/22 11:44:28;;;;;;;1.15;0.50;;;;;;;;;;5042412;28;20632;-65
2023/10/22 11:46:54;;;;;;;1.45;0.43;;;;;;;;;;5042969;28;20377;-65
2023/10/22 11:49:20;;;;;;;0.55;0.35;;;;;;;;;;5045168;28;20103;-65
2023/10/22 11:51:46;;;;;;;0.35;0.30;;;;;;;;;;5043215;28;20036;-65
2023/10/22 11:54:12;;;;;;;3.60;0.63;;;;;;;;;;5045808;28;20045;-65
2023/10/22 11:56:38;;;;;;;2.55;0.40;;;;;;;;;;5045510;28;20515;-65
2023/10/22 11:59:06;;;;;;;0.60;0.20;;;;;;;;;;5043721;28;20535;-65
2023/10/22 12:01:33;;;;;;;0.20;0.20;;;;;;;;;;5044638;28;20647;-65
2023/10/22 12:03:59;;;;;;;0.28;0.28;;;;;;;;;;5044011;28;20045;-65
2023/10/22 12:06:25;;;;;;;0.40;0.30;;;;;;;;;;5041054;28;20207;-65
2023/10/22 12:08:51;;;;;;;0.77;0.35;;;;;;;;;;5039555;28;20055;-65
2023/10/22 12:11:19;;;;;;;0.47;0.40;;;;;;;;;;5042864;28;20132;-65
2023/10/22 12:13:46;;;;;;;0.40;0.30;;;;;;;;;;5041123;28;20056;-65
2023/10/22 12:16:12;;;;;;;0.38;0.20;;;;;;;;;;5044756;28;20048;-65
2023/10/22 12:18:38;;;;;;;0.63;0.30;;;;;;;;;;5043425;28;20049;-64
2023/10/22 12:21:04;;;;;;;0.30;0.20;;;;;;;;;;5044744;28;20164;-65
2023/10/22 12:23:30;;;;;;;0.20;0.20;;;;;;;;;;5044935;28;20107;-64
2023/10/22 12:25:56;;;;;;;0.45;0.30;;;;;;;;;;5042882;28;20076;-65
2023/10/22 12:28:24;;;;;;;0.10;0.10;;;;;;;;;;5044832;28;20044;-65
2023/10/22 12:30:50;;;;;;;0.20;0.10;;;;;;;;;;5041979;28;20118;-64
2023/10/22 12:33:16;;;;;;;0.45;0.30;;;;;;;;;;5041748;28;20467;-65
2023/10/22 12:35:42;;;;;;;1.30;0.43;;;;;;;;;;5042679;28;20597;-65
2023/10/22 12:38:08;;;;;;;0.10;0.10;;;;;;;;;;5041954;28;20052;-65
2023/10/22 12:40:35;;;;;;;0.43;0.20;;;;;;;;;;5041596;28;20150;-65
2023/10/22 12:43:01;;;;;;;0.17;0.10;;;;;;;;;;5042278;28;20482;-65
2023/10/22 12:45:27;;;;;;;0.80;0.30;;;;;;;;;;5043391;28;20053;-65
2023/10/22 12:47:53;;;;;;;0.30;0.20;;;;;;;;;;5042980;28;20052;-65
2023/10/22 12:50:19;;;;;;;0.60;0.10;;;;;;;;;;5043720;28;20099;-65
2023/10/22 12:52:45;;;;;;;0.30;0.15;;;;;;;;;;5043539;28;20593;-64
2023/10/22 12:55:11;;;;;;;0.30;0.30;;;;;;;;;;5043323;28;20049;-64
2023/10/22 12:57:37;;;;;;;0.25;0.10;;;;;;;;;;5045083;28;20040;-64
2023/10/22 13:00:12;;;;;;;0.55;0.20;;;;;;;;;;5043554;28;20044;-64
2023/10/22 13:02:38;;;;;;;0.65;0.30;;;;;;;;;;5043111;28;20079;-64
2023/10/22 13:05:07;;;;;;;1.10;0.38;;;;;;;;;;5043813;28;20051;-64
2023/10/22 13:07:33;;;;;;;0.57;0.20;;;;;;;;;;5043496;28;20454;-64
2023/10/22 13:09:59;;;;;;;1.10;0.32;;;;;;;;;;5043142;28;20053;-64
2023/10/22 13:12:25;;;;;;;0.80;0.40;;;;;;;;;;5044939;28;20516;-64
2023/10/22 13:14:51;;;;;;;0.68;0.30;;;;;;;;;;5040532;28;20094;-64
2023/10/22 13:17:18;;;;;;;0.75;0.25;;;;;;;;;;5043646;28;20052;-64
2023/10/22 13:19:44;;;;;;;2.75;0.52;;;;;;;;;;5042725;28;20063;-64
2023/10/22 13:22:10;;;;;;;0.82;0.40;;;;;;;;;;5043212;28;20056;-64
2023/10/22 13:24:36;;;;;;;0.88;0.40;;;;;;;;;;5043692;28;20094;-64
2023/10/22 13:27:02;;;;;;;0.10;0.10;;;;;;;;;;5043270;28;20052;-64
2023/10/22 13:29:28;;;;;;;1.33;0.50;;;;;;;;;;5042415;28;20091;-64
2023/10/22 13:31:54;;;;;;;0.50;0.30;;;;;;;;;;5043490;28;20045;-64
2023/10/22 13:34:20;;;;;;;0.80;0.40;;;;;;;;;;5038673;28;20641;-64
2023/10/22 13:36:46;;;;;;;0.70;0.50;;;;;;;;;;5041514;28;20135;-64
2023/10/22 13:39:12;;;;;;;1.70;0.60;;;;;;;;;;5045045;28;20064;-64
2023/10/22 13:41:38;;;;;;;2.30;0.65;;;;;;;;;;5046207;28;20040;-63
2023/10/22 13:44:04;;;;;;;2.15;0.52;;;;;;;;;;5043592;28;20083;-63
2023/10/22 13:46:30;;;;;;;1.50;0.47;;;;;;;;;;5038298;28;20052;-63
2023/10/22 13:48:56;;;;;;;0.50;0.32;;;;;;;;;;5062246;28;20049;-64
2023/10/22 13:51:22;;;;;;;0.70;0.40;;;;;;;;;;5061093;28;20135;-63
2023/10/22 13:53:52;;;;;;;1.13;0.43;;;;;;;;;;5044462;28;20045;-64
2023/10/22 13:56:18;;;;;;;1.65;0.50;;;;;;;;;;5041508;28;20796;-64
2023/10/22 13:58:44;;;;;;;0.70;0.30;;;;;;;;;;5046800;28;20041;-65
2023/10/22 14:01:11;;;;;;;0.35;0.20;;;;;;;;;;5045568;28;20143;-64
2023/10/22 14:03:37;;;;;;;2.50;0.45;;;;;;;;;;5047031;28;20052;-64
2023/10/22 14:06:03;;;;;;;1.40;0.60;;;;;;;;;;5058679;28;20418;-64
2023/10/22 14:08:29;;;;;;;1.27;0.32;;;;;;;;;;5045318;28;20064;-64
2023/10/22 14:10:55;;;;;;;2.58;0.63;;;;;;;;;;5045377;28;20044;-64
2023/10/22 14:13:21;;;;;;;1.33;0.50;;;;;;;;;;5044600;28;20453;-64
2023/10/22 14:15:48;;;;;;;0.73;0.40;;;;;;;;;;5043875;28;20128;-64
2023/10/22 14:18:14;;;;;;;1.55;0.50;;;;;;;;;;5044967;28;20057;-64
2023/10/22 14:20:41;;;;;;;0.68;0.40;;;;;;;;;;5045138;28;20450;-64
2023/10/22 14:23:07;;;;;;;0.45;0.30;;;;;;;;;;5045047;28;20048;-64
2023/10/22 14:25:33;;;;;;;2.38;0.60;;;;;;;;;;5044826;28;20060;-64
2023/10/22 14:28:01;;;;;;;1.65;0.70;;;;;;;;;;5044214;28;20052;-64
2023/10/22 14:30:27;;;;;;;1.08;0.68;;;;;;;;;;5044261;28;20098;-64
2023/10/22 14:32:53;;;;;;;1.10;0.55;;;;;;;;;;5042963;28;20041;-64
2023/10/22 14:35:19;;;;;;;0.40;0.40;;;;;;;;;;5042090;28;20148;-64
2023/10/22 14:37:46;;;;;;;0.55;0.30;;;;;;;;;;5045134;28;20048;-64
2023/10/22 14:40:12;;;;;;;0.50;0.40;;;;;;;;;;5044670;28;20658;-64